sensor_id;sensor_type;location;lat;lon;timestamp;P1;durP1;ratioP1;P2;durP2;ratioP2
35743;SDS011;21867;52.012;4.324;2023-08-01T00:01:30;5.47;;;2.97;;
35743;SDS011;21867;52.012;4.324;2023-08-01T00:03:57;7.17;;;2.77;;
35743;SDS011;21867;52.012;4.324;2023-08-01T00:06:26;12.00;;;3.53;;
35743;SDS011;21867;52.012;4.324;2023-08-01T00:08:53;10.30;;;3.83;;
35743;SDS011;21867;52.012;4.324;2023-08-01T00:11:22;7.90;;;3.57;;
35743;SDS011;21867;52.012;4.324;2023-08-01T00:16:44;7.30;;;3.33;;
35743;SDS011;21867;52.012;4.324;2023-08-01T00:19:12;6.67;;;3.07;;
35743;SDS011;21867;52.012;4.324;2023-08-01T00:21:39;7.50;;;3.10;;
35743;SDS011;21867;52.012;4.324;2023-08-01T00:27:44;8.50;;;3.07;;
35743;SDS011;21867;52.012;4.324;2023-08-01T00:30:11;6.63;;;3.23;;
35743;SDS011;21867;52.012;4.324;2023-08-01T00:32:38;6.50;;;2.40;;
35743;SDS011;21867;52.012;4.324;2023-08-01T00:35:06;7.50;;;3.30;;
35743;SDS011;21867;52.012;4.324;2023-08-01T00:37:34;8.00;;;3.20;;
35743;SDS011;21867;52.012;4.324;2023-08-01T00:40:01;10.40;;;4.27;;
35743;SDS011;21867;52.012;4.324;2023-08-01T02:36:06;8.73;;;3.63;;
35743;SDS011;21867;52.012;4.324;2023-08-01T02:38:33;9.73;;;4.23;;
35743;SDS011;21867;52.012;4.324;2023-08-01T02:41:01;8.63;;;3.73;;
35743;SDS011;21867;52.012;4.324;2023-08-01T02:43:28;5.57;;;3.20;;
35743;SDS011;21867;52.012;4.324;2023-08-01T02:45:55;6.80;;;4.23;;
35743;SDS011;21867;52.012;4.324;2023-08-01T02:48:23;12.80;;;5.03;;
35743;SDS011;21867;52.012;4.324;2023-08-01T02:50:50;9.73;;;3.27;;
35743;SDS011;21867;52.012;4.324;2023-08-01T02:53:19;12.63;;;4.13;;
35743;SDS011;21867;52.012;4.324;2023-08-01T02:55:55;8.87;;;3.77;;
35743;SDS011;21867;52.012;4.324;2023-08-01T02:58:22;8.00;;;3.30;;
35743;SDS011;21867;52.012;4.324;2023-08-01T03:00:50;13.27;;;4.90;;
35743;SDS011;21867;52.012;4.324;2023-08-01T03:03:17;12.17;;;5.20;;
35743;SDS011;21867;52.012;4.324;2023-08-01T03:05:51;10.77;;;4.50;;
35743;SDS011;21867;52.012;4.324;2023-08-01T03:14:42;8.37;;;4.10;;
35743;SDS011;21867;52.012;4.324;2023-08-01T03:17:09;10.20;;;4.53;;
35743;SDS011;21867;52.012;4.324;2023-08-01T03:19:36;8.57;;;3.77;;
35743;SDS011;21867;52.012;4.324;2023-08-01T03:22:04;7.93;;;3.83;;
35743;SDS011;21867;52.012;4.324;2023-08-01T03:24:31;8.47;;;3.97;;
35743;SDS011;21867;52.012;4.324;2023-08-01T03:26:59;9.87;;;4.07;;
35743;SDS011;21867;52.012;4.324;2023-08-01T03:29:27;11.50;;;4.03;;
35743;SDS011;21867;52.012;4.324;2023-08-01T03:31:55;16.33;;;6.23;;
35743;SDS011;21867;52.012;4.324;2023-08-01T03:34:23;11.50;;;5.03;;
35743;SDS011;21867;52.012;4.324;2023-08-01T03:36:51;12.83;;;4.67;;
35743;SDS011;21867;52.012;4.324;2023-08-01T03:39:18;11.43;;;5.00;;
35743;SDS011;21867;52.012;4.324;2023-08-01T03:41:57;9.33;;;3.47;;
35743;SDS011;21867;52.012;4.324;2023-08-01T03:47:22;8.30;;;3.80;;
35743;SDS011;21867;52.012;4.324;2023-08-01T03:49:50;12.07;;;3.63;;
35743;SDS011;21867;52.012;4.324;2023-08-01T03:52:17;9.43;;;3.57;;
35743;SDS011;21867;52.012;4.324;2023-08-01T03:54:46;10.20;;;3.67;;
35743;SDS011;21867;52.012;4.324;2023-08-01T03:57:13;10.60;;;3.33;;
35743;SDS011;21867;52.012;4.324;2023-08-01T04:02:52;8.10;;;3.57;;
35743;SDS011;21867;52.012;4.324;2023-08-01T04:05:20;8.13;;;4.33;;
35743;SDS011;21867;52.012;4.324;2023-08-01T04:07:47;12.77;;;3.60;;
35743;SDS011;21867;52.012;4.324;2023-08-01T04:16:39;11.83;;;3.60;;
35743;SDS011;21867;52.012;4.324;2023-08-01T04:19:09;9.20;;;3.53;;
35743;SDS011;21867;52.012;4.324;2023-08-01T04:21:36;9.77;;;4.37;;
35743;SDS011;21867;52.012;4.324;2023-08-01T04:24:03;8.27;;;3.47;;
35743;SDS011;21867;52.012;4.324;2023-08-01T04:26:31;6.67;;;3.13;;
35743;SDS011;21867;52.012;4.324;2023-08-01T11:16:43;3.90;;;2.43;;
35743;SDS011;21867;52.012;4.324;2023-08-01T11:19:17;7.90;;;2.77;;
35743;SDS011;21867;52.012;4.324;2023-08-01T11:21:44;8.13;;;2.77;;
35743;SDS011;21867;52.012;4.324;2023-08-01T11:34:22;6.77;;;3.17;;
35743;SDS011;21867;52.012;4.324;2023-08-01T11:36:50;8.43;;;3.00;;
35743;SDS011;21867;52.012;4.324;2023-08-01T11:39:18;13.20;;;3.33;;
35743;SDS011;21867;52.012;4.324;2023-08-01T11:41:45;8.13;;;2.77;;
35743;SDS011;21867;52.012;4.324;2023-08-01T13:16:10;5.13;;;1.97;;
35743;SDS011;21867;52.012;4.324;2023-08-01T13:18:38;6.57;;;1.83;;
35743;SDS011;21867;52.012;4.324;2023-08-01T13:21:06;11.77;;;2.67;;
35743;SDS011;21867;52.012;4.324;2023-08-01T13:23:33;8.67;;;2.93;;
35743;SDS011;21867;52.012;4.324;2023-08-01T13:26:00;6.53;;;2.73;;
35743;SDS011;21867;52.012;4.324;2023-08-01T13:34:54;6.70;;;2.37;;
35743;SDS011;21867;52.012;4.324;2023-08-01T13:37:21;7.27;;;2.33;;
35743;SDS011;21867;52.012;4.324;2023-08-01T13:39:48;5.00;;;2.30;;
35743;SDS011;21867;52.012;4.324;2023-08-01T13:42:16;7.97;;;2.47;;
35743;SDS011;21867;52.012;4.324;2023-08-01T13:47:53;6.50;;;2.73;;
35743;SDS011;21867;52.012;4.324;2023-08-01T13:50:22;6.00;;;2.37;;
35743;SDS011;21867;52.012;4.324;2023-08-01T13:52:49;6.03;;;2.60;;
35743;SDS011;21867;52.012;4.324;2023-08-01T13:55:16;4.77;;;2.13;;
35743;SDS011;21867;52.012;4.324;2023-08-01T14:01:01;8.40;;;2.83;;
35743;SDS011;21867;52.012;4.324;2023-08-01T14:03:28;6.53;;;3.20;;
35743;SDS011;21867;52.012;4.324;2023-08-01T14:06:02;5.93;;;2.33;;
35743;SDS011;21867;52.012;4.324;2023-08-01T14:15:27;12.23;;;2.60;;
35743;SDS011;21867;52.012;4.324;2023-08-01T14:17:55;7.83;;;2.50;;
35743;SDS011;21867;52.012;4.324;2023-08-01T14:20:22;7.53;;;2.70;;
35743;SDS011;21867;52.012;4.324;2023-08-01T14:22:51;7.53;;;2.37;;
35743;SDS011;21867;52.012;4.324;2023-08-01T14:25:18;8.77;;;2.17;;
35743;SDS011;21867;52.012;4.324;2023-08-01T14:27:46;4.60;;;1.63;;
35743;SDS011;21867;52.012;4.324;2023-08-01T14:30:13;5.73;;;2.10;;
35743;SDS011;21867;52.012;4.324;2023-08-01T14:32:40;7.10;;;1.97;;
35743;SDS011;21867;52.012;4.324;2023-08-01T14:35:08;4.40;;;1.90;;
35743;SDS011;21867;52.012;4.324;2023-08-01T14:37:35;8.27;;;1.80;;
35743;SDS011;21867;52.012;4.324;2023-08-01T14:40:05;8.50;;;2.93;;
35743;SDS011;21867;52.012;4.324;2023-08-01T14:42:32;11.03;;;2.77;;
35743;SDS011;21867;52.012;4.324;2023-08-01T14:44:59;6.83;;;3.07;;
35743;SDS011;21867;52.012;4.324;2023-08-01T14:47:27;5.17;;;2.10;;
35743;SDS011;21867;52.012;4.324;2023-08-01T14:49:54;6.73;;;2.10;;
35743;SDS011;21867;52.012;4.324;2023-08-01T14:52:21;4.27;;;2.53;;
35743;SDS011;21867;52.012;4.324;2023-08-01T14:54:55;7.83;;;2.43;;
35743;SDS011;21867;52.012;4.324;2023-08-01T14:57:24;6.20;;;2.47;;
35743;SDS011;21867;52.012;4.324;2023-08-01T14:59:51;5.60;;;2.10;;
35743;SDS011;21867;52.012;4.324;2023-08-01T15:02:18;6.77;;;2.50;;
35743;SDS011;21867;52.012;4.324;2023-08-01T15:04:45;4.77;;;1.90;;
35743;SDS011;21867;52.012;4.324;2023-08-01T15:07:13;7.70;;;2.23;;
35743;SDS011;21867;52.012;4.324;2023-08-01T15:09:41;7.53;;;2.63;;
35743;SDS011;21867;52.012;4.324;2023-08-01T15:12:09;7.63;;;2.23;;
35743;SDS011;21867;52.012;4.324;2023-08-01T15:14:37;5.33;;;2.10;;
35743;SDS011;21867;52.012;4.324;2023-08-01T15:17:05;5.83;;;2.20;;
35743;SDS011;21867;52.012;4.324;2023-08-01T15:19:33;6.07;;;2.33;;
35743;SDS011;21867;52.012;4.324;2023-08-01T15:22:03;5.23;;;1.80;;
35743;SDS011;21867;52.012;4.324;2023-08-01T15:24:30;6.47;;;2.23;;
35743;SDS011;21867;52.012;4.324;2023-08-01T15:26:57;4.90;;;2.20;;
35743;SDS011;21867;52.012;4.324;2023-08-01T15:29:24;4.63;;;1.80;;
35743;SDS011;21867;52.012;4.324;2023-08-01T15:31:53;8.40;;;2.40;;
35743;SDS011;21867;52.012;4.324;2023-08-01T15:34:20;4.03;;;1.70;;
35743;SDS011;21867;52.012;4.324;2023-08-01T15:36:48;4.23;;;1.93;;
35743;SDS011;21867;52.012;4.324;2023-08-01T15:39:15;4.73;;;2.17;;
35743;SDS011;21867;52.012;4.324;2023-08-01T15:41:43;5.80;;;1.90;;
35743;SDS011;21867;52.012;4.324;2023-08-01T15:44:10;5.53;;;1.77;;
35743;SDS011;21867;52.012;4.324;2023-08-01T15:46:37;4.03;;;1.87;;
35743;SDS011;21867;52.012;4.324;2023-08-01T15:49:07;5.57;;;2.30;;
35743;SDS011;21867;52.012;4.324;2023-08-01T15:51:34;3.27;;;2.20;;
35743;SDS011;21867;52.012;4.324;2023-08-01T15:54:02;6.60;;;2.03;;
35743;SDS011;21867;52.012;4.324;2023-08-01T15:56:29;6.37;;;2.10;;
35743;SDS011;21867;52.012;4.324;2023-08-01T15:58:58;7.87;;;2.07;;
35743;SDS011;21867;52.012;4.324;2023-08-01T16:01:25;5.93;;;2.17;;
35743;SDS011;21867;52.012;4.324;2023-08-01T16:03:53;7.07;;;2.07;;
35743;SDS011;21867;52.012;4.324;2023-08-01T16:06:21;5.30;;;2.37;;
35743;SDS011;21867;52.012;4.324;2023-08-01T16:08:49;2.63;;;1.80;;
35743;SDS011;21867;52.012;4.324;2023-08-01T16:11:16;5.93;;;2.00;;
35743;SDS011;21867;52.012;4.324;2023-08-01T16:13:43;4.97;;;2.10;;
35743;SDS011;21867;52.012;4.324;2023-08-01T16:16:11;6.93;;;2.30;;
35743;SDS011;21867;52.012;4.324;2023-08-01T16:18:38;3.20;;;1.60;;
35743;SDS011;21867;52.012;4.324;2023-08-01T16:21:05;6.87;;;2.20;;
35743;SDS011;21867;52.012;4.324;2023-08-01T16:23:34;6.67;;;2.10;;
35743;SDS011;21867;52.012;4.324;2023-08-01T16:26:01;4.60;;;2.03;;
35743;SDS011;21867;52.012;4.324;2023-08-01T16:28:29;8.73;;;2.17;;
35743;SDS011;21867;52.012;4.324;2023-08-01T16:30:56;6.00;;;2.00;;
35743;SDS011;21867;52.012;4.324;2023-08-01T16:33:23;4.53;;;1.90;;
35743;SDS011;21867;52.012;4.324;2023-08-01T16:35:51;7.60;;;2.03;;
35743;SDS011;21867;52.012;4.324;2023-08-01T16:38:18;8.97;;;2.63;;
35743;SDS011;21867;52.012;4.324;2023-08-01T16:40:46;5.20;;;2.10;;
35743;SDS011;21867;52.012;4.324;2023-08-01T16:43:14;3.87;;;1.90;;
35743;SDS011;21867;52.012;4.324;2023-08-01T16:45:41;4.57;;;1.67;;
35743;SDS011;21867;52.012;4.324;2023-08-01T16:48:09;4.50;;;2.03;;
35743;SDS011;21867;52.012;4.324;2023-08-01T16:50:36;4.40;;;1.80;;
35743;SDS011;21867;52.012;4.324;2023-08-01T16:53:03;5.73;;;2.40;;
35743;SDS011;21867;52.012;4.324;2023-08-01T16:55:31;3.57;;;1.80;;
35743;SDS011;21867;52.012;4.324;2023-08-01T16:57:59;6.77;;;2.63;;
35743;SDS011;21867;52.012;4.324;2023-08-01T17:00:27;6.73;;;2.47;;
35743;SDS011;21867;52.012;4.324;2023-08-01T17:02:54;8.17;;;2.40;;
35743;SDS011;21867;52.012;4.324;2023-08-01T17:05:21;5.57;;;2.43;;
35743;SDS011;21867;52.012;4.324;2023-08-01T17:07:49;5.73;;;2.23;;
35743;SDS011;21867;52.012;4.324;2023-08-01T17:10:16;4.73;;;2.13;;
35743;SDS011;21867;52.012;4.324;2023-08-01T17:12:43;4.55;;;2.00;;
35743;SDS011;21867;52.012;4.324;2023-08-01T17:15:12;3.90;;;1.90;;
35743;SDS011;21867;52.012;4.324;2023-08-01T17:17:39;5.40;;;1.80;;
35743;SDS011;21867;52.012;4.324;2023-08-01T17:20:07;7.23;;;2.07;;
35743;SDS011;21867;52.012;4.324;2023-08-01T17:22:34;3.90;;;1.80;;
35743;SDS011;21867;52.012;4.324;2023-08-01T17:25:02;4.23;;;2.27;;
35743;SDS011;21867;52.012;4.324;2023-08-01T17:27:29;4.40;;;1.90;;
35743;SDS011;21867;52.012;4.324;2023-08-01T17:29:56;4.73;;;1.93;;
35743;SDS011;21867;52.012;4.324;2023-08-01T17:32:25;5.63;;;1.97;;
35743;SDS011;21867;52.012;4.324;2023-08-01T17:34:52;10.23;;;2.50;;
35743;SDS011;21867;52.012;4.324;2023-08-01T17:37:20;6.70;;;1.93;;
35743;SDS011;21867;52.012;4.324;2023-08-01T17:39:47;5.03;;;1.90;;
35743;SDS011;21867;52.012;4.324;2023-08-01T17:42:14;5.20;;;1.60;;
35743;SDS011;21867;52.012;4.324;2023-08-01T17:44:42;4.63;;;1.80;;
35743;SDS011;21867;52.012;4.324;2023-08-01T17:47:09;5.53;;;1.73;;
35743;SDS011;21867;52.012;4.324;2023-08-01T17:49:37;5.23;;;2.20;;
35743;SDS011;21867;52.012;4.324;2023-08-01T17:52:05;7.23;;;2.23;;
35743;SDS011;21867;52.012;4.324;2023-08-01T17:54:32;2.97;;;1.80;;
35743;SDS011;21867;52.012;4.324;2023-08-01T17:57:00;4.07;;;2.13;;
35743;SDS011;21867;52.012;4.324;2023-08-01T17:59:27;5.35;;;2.47;;
35743;SDS011;21867;52.012;4.324;2023-08-01T18:01:54;5.73;;;2.50;;
35743;SDS011;21867;52.012;4.324;2023-08-01T18:04:21;7.60;;;2.30;;
35743;SDS011;21867;52.012;4.324;2023-08-01T18:06:50;5.77;;;2.47;;
35743;SDS011;21867;52.012;4.324;2023-08-01T18:09:17;5.50;;;2.10;;
35743;SDS011;21867;52.012;4.324;2023-08-01T18:11:45;6.57;;;2.67;;
35743;SDS011;21867;52.012;4.324;2023-08-01T18:14:13;3.63;;;1.93;;
35743;SDS011;21867;52.012;4.324;2023-08-01T18:16:40;9.47;;;2.53;;
35743;SDS011;21867;52.012;4.324;2023-08-01T18:19:08;10.87;;;2.37;;
35743;SDS011;21867;52.012;4.324;2023-08-01T18:21:36;11.93;;;2.77;;
35743;SDS011;21867;52.012;4.324;2023-08-01T18:24:05;8.83;;;3.33;;
35743;SDS011;21867;52.012;4.324;2023-08-01T18:26:33;8.80;;;2.93;;
35743;SDS011;21867;52.012;4.324;2023-08-01T18:29:00;5.87;;;2.53;;
35743;SDS011;21867;52.012;4.324;2023-08-01T18:31:27;4.53;;;2.07;;
35743;SDS011;21867;52.012;4.324;2023-08-01T18:33:55;4.57;;;2.37;;
35743;SDS011;21867;52.012;4.324;2023-08-01T18:36:22;8.70;;;3.40;;
35743;SDS011;21867;52.012;4.324;2023-08-01T18:38:49;8.00;;;2.50;;
35743;SDS011;21867;52.012;4.324;2023-08-01T18:41:18;6.67;;;2.53;;
35743;SDS011;21867;52.012;4.324;2023-08-01T18:43:46;6.37;;;2.43;;
35743;SDS011;21867;52.012;4.324;2023-08-01T18:46:14;7.07;;;2.33;;
35743;SDS011;21867;52.012;4.324;2023-08-01T18:48:41;8.00;;;3.00;;
35743;SDS011;21867;52.012;4.324;2023-08-01T18:51:09;8.77;;;2.80;;
35743;SDS011;21867;52.012;4.324;2023-08-01T18:53:37;5.87;;;2.50;;
35743;SDS011;21867;52.012;4.324;2023-08-01T18:56:04;10.03;;;2.93;;
35743;SDS011;21867;52.012;4.324;2023-08-01T18:58:36;7.87;;;3.03;;
35743;SDS011;21867;52.012;4.324;2023-08-01T19:01:11;7.33;;;2.87;;
35743;SDS011;21867;52.012;4.324;2023-08-01T19:03:38;9.67;;;2.63;;
35743;SDS011;21867;52.012;4.324;2023-08-01T19:06:06;11.80;;;2.83;;
35743;SDS011;21867;52.012;4.324;2023-08-01T19:08:34;11.47;;;2.80;;
35743;SDS011;21867;52.012;4.324;2023-08-01T19:11:01;8.13;;;2.67;;
35743;SDS011;21867;52.012;4.324;2023-08-01T19:13:29;10.27;;;2.60;;
35743;SDS011;21867;52.012;4.324;2023-08-01T19:15:58;8.03;;;2.77;;
35743;SDS011;21867;52.012;4.324;2023-08-01T19:18:26;7.97;;;2.57;;
35743;SDS011;21867;52.012;4.324;2023-08-01T19:20:53;10.67;;;2.90;;
35743;SDS011;21867;52.012;4.324;2023-08-01T19:23:21;10.63;;;4.00;;
35743;SDS011;21867;52.012;4.324;2023-08-01T19:25:48;12.87;;;3.47;;
35743;SDS011;21867;52.012;4.324;2023-08-01T19:28:17;8.37;;;2.60;;
35743;SDS011;21867;52.012;4.324;2023-08-01T19:30:45;7.63;;;3.00;;
35743;SDS011;21867;52.012;4.324;2023-08-01T19:33:13;10.80;;;3.90;;
35743;SDS011;21867;52.012;4.324;2023-08-01T19:35:41;11.40;;;2.87;;
35743;SDS011;21867;52.012;4.324;2023-08-01T19:38:08;6.97;;;2.60;;
35743;SDS011;21867;52.012;4.324;2023-08-01T19:40:37;12.40;;;3.30;;
35743;SDS011;21867;52.012;4.324;2023-08-01T19:43:05;8.47;;;3.30;;
35743;SDS011;21867;52.012;4.324;2023-08-01T19:45:32;12.37;;;4.60;;
35743;SDS011;21867;52.012;4.324;2023-08-01T19:47:59;16.83;;;4.07;;
35743;SDS011;21867;52.012;4.324;2023-08-01T19:50:28;15.43;;;4.67;;
35743;SDS011;21867;52.012;4.324;2023-08-01T19:52:55;14.07;;;5.00;;
35743;SDS011;21867;52.012;4.324;2023-08-01T19:55:23;12.70;;;4.20;;
35743;SDS011;21867;52.012;4.324;2023-08-01T19:57:50;20.47;;;5.67;;
35743;SDS011;21867;52.012;4.324;2023-08-01T20:00:17;14.43;;;4.17;;
35743;SDS011;21867;52.012;4.324;2023-08-01T20:02:45;16.33;;;4.17;;
35743;SDS011;21867;52.012;4.324;2023-08-01T20:05:12;12.80;;;4.50;;
35743;SDS011;21867;52.012;4.324;2023-08-01T20:07:41;20.17;;;6.03;;
35743;SDS011;21867;52.012;4.324;2023-08-01T20:10:08;16.27;;;4.37;;
35743;SDS011;21867;52.012;4.324;2023-08-01T20:12:36;16.37;;;4.80;;
35743;SDS011;21867;52.012;4.324;2023-08-01T20:15:04;17.67;;;5.30;;
35743;SDS011;21867;52.012;4.324;2023-08-01T20:17:31;19.95;;;5.95;;
35743;SDS011;21867;52.012;4.324;2023-08-01T20:19:58;14.90;;;4.13;;
35743;SDS011;21867;52.012;4.324;2023-08-01T20:22:26;17.70;;;5.50;;
35743;SDS011;21867;52.012;4.324;2023-08-01T20:24:54;22.00;;;5.40;;
35743;SDS011;21867;52.012;4.324;2023-08-01T20:27:21;19.90;;;5.77;;
35743;SDS011;21867;52.012;4.324;2023-08-01T20:29:49;16.30;;;4.83;;
35743;SDS011;21867;52.012;4.324;2023-08-01T20:32:16;17.57;;;6.37;;
35743;SDS011;21867;52.012;4.324;2023-08-01T20:34:44;21.80;;;6.30;;
35743;SDS011;21867;52.012;4.324;2023-08-01T20:37:11;25.57;;;5.83;;
35743;SDS011;21867;52.012;4.324;2023-08-01T20:39:38;23.33;;;5.30;;
35743;SDS011;21867;52.012;4.324;2023-08-01T20:42:07;16.73;;;5.63;;
35743;SDS011;21867;52.012;4.324;2023-08-01T20:44:34;17.73;;;5.50;;
35743;SDS011;21867;52.012;4.324;2023-08-01T20:47:02;20.07;;;5.50;;
35743;SDS011;21867;52.012;4.324;2023-08-01T20:49:29;16.93;;;5.40;;
35743;SDS011;21867;52.012;4.324;2023-08-01T20:51:59;26.97;;;6.70;;
35743;SDS011;21867;52.012;4.324;2023-08-01T20:54:26;24.17;;;6.67;;
35743;SDS011;21867;52.012;4.324;2023-08-01T20:56:53;22.40;;;5.77;;
35743;SDS011;21867;52.012;4.324;2023-08-01T20:59:23;22.47;;;6.17;;
35743;SDS011;21867;52.012;4.324;2023-08-01T21:01:50;19.67;;;5.33;;
35743;SDS011;21867;52.012;4.324;2023-08-01T21:04:17;13.43;;;5.50;;
35743;SDS011;21867;52.012;4.324;2023-08-01T21:06:45;17.00;;;5.07;;
35743;SDS011;21867;52.012;4.324;2023-08-01T21:09:12;15.50;;;5.77;;
35743;SDS011;21867;52.012;4.324;2023-08-01T21:11:39;14.57;;;4.97;;
35743;SDS011;21867;52.012;4.324;2023-08-01T21:14:07;16.30;;;4.87;;
35743;SDS011;21867;52.012;4.324;2023-08-01T21:16:35;21.67;;;4.87;;
35743;SDS011;21867;52.012;4.324;2023-08-01T21:19:03;16.27;;;5.10;;
35743;SDS011;21867;52.012;4.324;2023-08-01T21:21:30;18.80;;;4.87;;
35743;SDS011;21867;52.012;4.324;2023-08-01T21:23:57;15.37;;;5.10;;
35743;SDS011;21867;52.012;4.324;2023-08-01T21:26:25;16.43;;;4.90;;
35743;SDS011;21867;52.012;4.324;2023-08-01T21:28:52;18.73;;;5.43;;
35743;SDS011;21867;52.012;4.324;2023-08-01T21:31:19;11.97;;;3.53;;
35743;SDS011;21867;52.012;4.324;2023-08-01T21:33:48;12.23;;;5.07;;
35743;SDS011;21867;52.012;4.324;2023-08-01T21:36:15;12.07;;;3.90;;
35743;SDS011;21867;52.012;4.324;2023-08-01T21:38:43;16.60;;;4.33;;
35743;SDS011;21867;52.012;4.324;2023-08-01T21:41:11;13.80;;;3.73;;
35743;SDS011;21867;52.012;4.324;2023-08-01T21:43:43;14.93;;;4.13;;
35743;SDS011;21867;52.012;4.324;2023-08-01T21:46:10;19.87;;;3.93;;
35743;SDS011;21867;52.012;4.324;2023-08-01T21:48:38;13.45;;;4.20;;
35743;SDS011;21867;52.012;4.324;2023-08-01T21:51:06;12.13;;;3.90;;
35743;SDS011;21867;52.012;4.324;2023-08-01T21:53:34;15.10;;;4.17;;
35743;SDS011;21867;52.012;4.324;2023-08-01T21:56:01;9.80;;;2.97;;
35743;SDS011;21867;52.012;4.324;2023-08-01T21:58:28;12.20;;;3.87;;
35743;SDS011;21867;52.012;4.324;2023-08-01T22:00:56;10.77;;;3.40;;
35743;SDS011;21867;52.012;4.324;2023-08-01T22:03:23;10.67;;;3.70;;
35743;SDS011;21867;52.012;4.324;2023-08-01T22:05:53;8.30;;;2.67;;
35743;SDS011;21867;52.012;4.324;2023-08-01T22:08:22;13.13;;;3.87;;
35743;SDS011;21867;52.012;4.324;2023-08-01T22:10:52;8.93;;;3.00;;
35743;SDS011;21867;52.012;4.324;2023-08-01T22:13:20;14.17;;;4.03;;
35743;SDS011;21867;52.012;4.324;2023-08-01T22:15:47;10.63;;;3.60;;
35743;SDS011;21867;52.012;4.324;2023-08-01T22:18:15;12.60;;;4.30;;
35743;SDS011;21867;52.012;4.324;2023-08-01T22:20:42;14.40;;;3.73;;
35743;SDS011;21867;52.012;4.324;2023-08-01T22:23:09;14.93;;;4.07;;
35743;SDS011;21867;52.012;4.324;2023-08-01T22:25:38;11.20;;;3.17;;
35743;SDS011;21867;52.012;4.324;2023-08-01T23:07:11;9.07;;;3.10;;
35743;SDS011;21867;52.012;4.324;2023-08-01T23:09:38;9.40;;;3.60;;
35743;SDS011;21867;52.012;4.324;2023-08-01T23:12:06;10.30;;;4.30;;
35743;SDS011;21867;52.012;4.324;2023-08-01T23:17:58;8.03;;;3.00;;
35743;SDS011;21867;52.012;4.324;2023-08-01T23:20:26;8.27;;;3.88;;
35743;SDS011;21867;52.012;4.324;2023-08-01T23:22:55;9.87;;;3.53;;
35743;SDS011;21867;52.012;4.324;2023-08-01T23:25:22;8.53;;;3.67;;
35743;SDS011;21867;52.012;4.324;2023-08-01T23:27:49;6.77;;;3.70;;
35743;SDS011;21867;52.012;4.324;2023-08-01T23:30:16;7.20;;;3.57;;
35743;SDS011;21867;52.012;4.324;2023-08-01T23:32:51;8.20;;;4.00;;
35743;SDS011;21867;52.012;4.324;2023-08-01T23:35:19;9.10;;;3.57;;
35743;SDS011;21867;52.012;4.324;2023-08-01T23:37:47;10.43;;;3.50;;
35743;SDS011;21867;52.012;4.324;2023-08-01T23:40:17;7.50;;;3.30;;
35743;SDS011;21867;52.012;4.324;2023-08-01T23:49:15;10.40;;;4.23;;
35743;SDS011;21867;52.012;4.324;2023-08-01T23:51:42;6.17;;;3.30;;
35743;SDS011;21867;52.012;4.324;2023-08-01T23:54:10;10.33;;;4.73;;
35743;SDS011;21867;52.012;4.324;2023-08-01T23:56:38;10.17;;;3.47;;
35743;SDS011;21867;52.012;4.324;2023-08-01T23:59:06;6.87;;;3.77;;
